createdAt,value
2023-03-24T00:00:29.202Z,3.00
2023-03-24T00:05:30.999Z,2.72
2023-03-24T00:10:34.388Z,2.33
2023-03-24T00:15:36.211Z,2.50
2023-03-24T00:20:37.573Z,3.30
2023-03-24T00:25:39.989Z,2.03
2023-03-24T00:30:41.680Z,1.85
2023-03-24T00:35:44.731Z,1.95
2023-03-24T00:40:48.432Z,2.05
2023-03-24T00:45:49.794Z,1.55
2023-03-24T00:50:52.027Z,1.70
2023-03-24T00:55:53.767Z,2.00
2023-03-24T01:00:57.897Z,1.60
2023-03-24T01:06:04.018Z,1.88
2023-03-24T01:11:06.556Z,1.47
2023-03-24T01:16:08.764Z,1.73
2023-03-24T01:21:11.966Z,2.08
2023-03-24T01:26:13.310Z,1.98
2023-03-24T01:31:14.717Z,2.08
2023-03-24T01:36:16.216Z,2.03
2023-03-24T01:41:17.643Z,2.13
2023-03-24T01:46:20.634Z,2.95
2023-03-24T01:51:37.304Z,1.92
2023-03-24T01:56:47.458Z,2.20
2023-03-24T02:01:49.542Z,2.22
2023-03-24T02:06:51.188Z,1.85
2023-03-24T02:11:52.828Z,2.28
2023-03-24T02:17:15.106Z,2.08
2023-03-24T02:22:53.514Z,2.30
2023-03-24T02:28:17.770Z,2.20
2023-03-24T02:33:58.009Z,1.77
2023-03-24T02:39:21.540Z,2.08
2023-03-24T02:44:56.738Z,1.85
2023-03-24T02:50:18.358Z,2.00
2023-03-24T02:55:31.405Z,2.05
2023-03-24T03:00:39.919Z,3.58
2023-03-24T03:05:59.282Z,3.33
2023-03-24T03:11:03.659Z,3.88
2023-03-24T03:16:15.944Z,3.00
2023-03-24T03:21:20.895Z,3.65
2023-03-24T03:26:26.683Z,3.45
2023-03-24T03:31:44.913Z,3.63
2023-03-24T03:36:53.759Z,5.70
2023-03-24T03:41:56.670Z,4.00
2023-03-24T03:46:58.543Z,3.22
2023-03-24T03:51:59.949Z,3.33
2023-03-24T03:57:01.739Z,4.40
2023-03-24T04:02:34.709Z,3.60
2023-03-24T04:07:41.499Z,3.60
2023-03-24T04:13:00.551Z,3.33
2023-03-24T04:18:17.047Z,3.45
2023-03-24T04:23:44.522Z,4.38
2023-03-24T04:29:17.795Z,4.05
2023-03-24T04:34:29.294Z,3.65
2023-03-24T04:39:38.728Z,4.10
2023-03-24T04:44:41.638Z,5.20
2023-03-24T04:49:43.086Z,4.90
2023-03-24T04:54:44.400Z,4.95
2023-03-24T04:59:46.103Z,4.68
2023-03-24T05:04:47.445Z,5.25
2023-03-24T05:09:48.771Z,5.20
2023-03-24T05:14:50.222Z,5.97
2023-03-24T05:19:51.738Z,5.00
2023-03-24T05:24:53.074Z,4.40
2023-03-24T05:29:54.433Z,5.07
2023-03-24T05:34:55.884Z,4.20
2023-03-24T05:46:12.894Z,4.78
2023-03-24T05:51:14.257Z,4.50
2023-03-24T05:56:15.706Z,5.03
2023-03-24T06:01:18.265Z,4.25
2023-03-24T06:06:19.746Z,4.25
2023-03-24T06:11:21.226Z,4.50
2023-03-24T06:16:23.907Z,4.20
2023-03-24T06:21:32.475Z,4.10
2023-03-24T06:26:35.429Z,3.78
2023-03-24T06:31:37.320Z,3.80
2023-03-24T06:36:38.790Z,4.03
2023-03-24T06:41:40.552Z,2.70
2023-03-24T06:46:42.035Z,1.92
2023-03-24T06:51:43.602Z,1.95
2023-03-24T06:56:45.069Z,1.60
2023-03-24T07:01:49.408Z,1.15
2023-03-24T07:07:08.590Z,1.15
2023-03-24T07:12:14.413Z,1.10
2023-03-24T07:17:16.258Z,1.40
2023-03-24T07:22:17.697Z,1.50
2023-03-24T07:27:19.030Z,1.85
2023-03-24T07:32:20.416Z,1.33
2023-03-24T07:37:21.766Z,1.85
2023-03-24T07:42:23.133Z,1.25
2023-03-24T07:47:24.582Z,2.15
2023-03-24T07:52:25.950Z,2.00
2023-03-24T07:57:27.380Z,2.55
2023-03-24T08:02:28.833Z,3.10
2023-03-24T08:07:30.164Z,3.33
2023-03-24T08:12:31.846Z,3.53
2023-03-24T08:17:33.792Z,3.35
2023-03-24T08:22:37.677Z,3.40
2023-03-24T08:27:40.115Z,3.08
2023-03-24T08:32:56.374Z,2.58
2023-03-24T08:38:01.662Z,3.10
2023-03-24T08:43:08.500Z,2.30
2023-03-24T08:48:10.492Z,2.75
2023-03-24T08:53:12.383Z,2.53
2023-03-24T08:58:20.910Z,2.88
2023-03-24T09:03:22.818Z,2.88
2023-03-24T09:08:25.256Z,3.90
2023-03-24T09:13:26.580Z,3.53
2023-03-24T09:18:29.041Z,2.28
2023-03-24T09:23:31.537Z,1.38
2023-03-24T09:28:33.095Z,0.75
2023-03-24T09:33:34.931Z,0.75
2023-03-24T09:38:36.390Z,0.50
2023-03-24T09:43:44.446Z,0.30
2023-03-24T09:48:55.037Z,0.30
2023-03-24T09:54:18.092Z,0.52
2023-03-24T09:59:40.001Z,0.20
2023-03-24T10:04:41.637Z,0.30
2023-03-24T10:09:46.268Z,0.20
2023-03-24T10:14:57.777Z,0.30
2023-03-24T10:20:25.681Z,0.20
2023-03-24T10:30:48.328Z,0.22
2023-03-24T10:36:02.576Z,0.20
2023-03-24T10:41:04.383Z,0.40
2023-03-24T10:46:06.392Z,0.20
2023-03-24T10:51:17.986Z,0.30
2023-03-24T10:56:41.723Z,1.38
2023-03-24T11:01:43.206Z,0.30
2023-03-24T11:07:02.634Z,0.30
2023-03-24T11:12:04.357Z,0.25
2023-03-24T11:17:16.812Z,0.40
2023-03-24T11:22:18.560Z,0.65
2023-03-24T11:27:20.267Z,0.35
2023-03-24T11:32:27.827Z,0.30
2023-03-24T11:37:34.708Z,0.35
2023-03-24T11:42:57.691Z,0.30
2023-03-24T11:48:01.139Z,0.30
2023-03-24T11:53:15.972Z,0.57
2023-03-24T11:58:36.904Z,0.30
2023-03-24T12:04:20.754Z,0.57
2023-03-24T12:09:53.954Z,0.30
2023-03-24T12:15:28.152Z,0.38
2023-03-24T12:20:44.928Z,1.52
2023-03-24T12:26:05.100Z,0.40
2023-03-24T12:31:38.821Z,0.50
2023-03-24T12:36:54.281Z,0.30
2023-03-24T12:42:15.740Z,0.25
2023-03-24T12:47:36.094Z,0.13
2023-03-24T12:53:08.222Z,0.32
2023-03-24T12:58:20.733Z,0.20
2023-03-24T13:03:30.350Z,0.20
2023-03-24T13:08:32.930Z,0.20
2023-03-24T13:13:40.828Z,0.10
2023-03-24T13:19:00.390Z,0.13
2023-03-24T13:24:15.383Z,0.95
2023-03-24T13:29:48.377Z,0.40
2023-03-24T13:35:00.246Z,0.28
2023-03-24T13:40:07.812Z,0.10
2023-03-24T13:45:27.089Z,0.20
2023-03-24T13:50:32.276Z,0.30
2023-03-24T13:55:38.226Z,0.20
2023-03-24T14:01:06.349Z,0.55
2023-03-24T14:06:09.687Z,0.20
2023-03-24T14:11:38.444Z,0.40
2023-03-24T14:16:44.305Z,0.57
2023-03-24T14:21:52.550Z,0.20
2023-03-24T14:26:54.096Z,1.48
2023-03-24T14:32:17.296Z,0.50
2023-03-24T14:37:22.175Z,0.30
2023-03-24T14:42:32.362Z,0.20
2023-03-24T14:47:38.001Z,0.28
2023-03-24T14:52:51.070Z,0.50
2023-03-24T14:57:56.314Z,0.20
2023-03-24T15:03:41.276Z,0.30
2023-03-24T15:08:54.291Z,0.20
2023-03-24T15:13:57.481Z,0.20
2023-03-24T15:19:02.501Z,0.32
2023-03-24T15:24:27.089Z,0.20
2023-03-24T15:29:28.453Z,0.20
2023-03-24T15:34:47.246Z,0.40
2023-03-24T15:39:59.164Z,0.30
2023-03-24T15:45:21.050Z,0.20
2023-03-24T15:50:35.492Z,0.20
2023-03-24T15:55:37.932Z,0.20
2023-03-24T16:00:42.362Z,0.10
2023-03-24T16:05:48.680Z,0.20
2023-03-24T16:11:07.069Z,0.20
2023-03-24T16:16:24.180Z,0.40
2023-03-24T16:21:28.261Z,0.20
2023-03-24T16:26:32.360Z,0.20
2023-03-24T16:31:35.520Z,0.55
2023-03-24T16:36:37.104Z,0.15
2023-03-24T16:41:38.505Z,0.20
2023-03-24T16:46:41.081Z,0.25
2023-03-24T16:51:43.204Z,0.70
2023-03-24T16:56:44.854Z,0.40
2023-03-24T17:01:47.710Z,0.30
2023-03-24T17:06:55.124Z,0.25
2023-03-24T17:11:58.485Z,0.32
2023-03-24T17:17:02.791Z,0.20
2023-03-24T17:22:06.840Z,0.70
2023-03-24T17:27:26.103Z,0.32
2023-03-24T17:32:32.261Z,0.28
2023-03-24T17:37:33.661Z,0.40
2023-03-24T17:42:35.456Z,1.38
2023-03-24T17:47:36.847Z,0.30
2023-03-24T17:52:48.168Z,0.20
2023-03-24T17:57:49.590Z,0.20
2023-03-24T18:02:51.125Z,0.57
2023-03-24T18:07:52.678Z,0.30
2023-03-24T18:12:54.565Z,0.30
2023-03-24T18:17:56.162Z,0.30
2023-03-24T18:22:57.998Z,0.20
2023-03-24T18:27:59.453Z,0.20
2023-03-24T18:33:01.214Z,1.58
2023-03-24T18:38:02.711Z,0.30
2023-03-24T18:43:04.267Z,0.70
2023-03-24T18:48:06.314Z,0.30
2023-03-24T18:53:07.754Z,0.20
2023-03-24T18:58:15.139Z,0.32
2023-03-24T19:03:17.291Z,0.30
2023-03-24T19:08:22.504Z,0.60
2023-03-24T19:13:23.993Z,0.20
2023-03-24T19:18:25.868Z,0.82
2023-03-24T19:23:28.318Z,0.20
2023-03-24T19:28:32.108Z,0.32
2023-03-24T19:33:33.495Z,0.35
2023-03-24T19:38:36.030Z,0.25
2023-03-24T19:43:37.844Z,0.30
2023-03-24T19:48:39.264Z,0.20
2023-03-24T19:53:40.873Z,0.75
2023-03-24T19:58:42.231Z,2.20
2023-03-24T20:03:43.846Z,0.20
2023-03-24T20:08:45.440Z,0.30
2023-03-24T20:13:46.768Z,0.32
2023-03-24T20:18:48.238Z,0.20
2023-03-24T20:23:50.376Z,0.20
2023-03-24T20:28:51.917Z,0.10
2023-03-24T20:33:53.282Z,0.10
2023-03-24T20:38:59.088Z,0.20
2023-03-24T20:44:00.723Z,0.20
2023-03-24T20:49:02.145Z,0.20
2023-03-24T20:54:05.573Z,0.22
2023-03-24T20:59:07.306Z,0.20
2023-03-24T21:04:10.003Z,0.50
2023-03-24T21:09:11.642Z,0.30
2023-03-24T21:14:12.973Z,0.38
2023-03-24T21:19:14.543Z,0.60
2023-03-24T21:24:17.113Z,2.25
2023-03-24T21:29:18.628Z,1.20
2023-03-24T21:34:19.984Z,0.95
2023-03-24T21:39:21.699Z,0.30
2023-03-24T21:44:23.275Z,0.30
2023-03-24T21:49:24.649Z,0.20
2023-03-24T21:54:26.750Z,0.20
2023-03-24T21:59:28.567Z,0.20
2023-03-24T22:04:29.886Z,0.25
2023-03-24T22:09:31.196Z,0.20
2023-03-24T22:14:32.509Z,0.28
2023-03-24T22:19:33.975Z,0.20
2023-03-24T22:24:35.497Z,0.10
2023-03-24T22:29:37.246Z,0.10
2023-03-24T22:34:38.569Z,0.20
2023-03-24T22:39:39.890Z,0.10
2023-03-24T22:44:41.905Z,0.00
2023-03-24T22:49:43.298Z,0.30
2023-03-24T22:54:44.680Z,0.10
2023-03-24T22:59:46.091Z,0.00
2023-03-24T23:04:48.248Z,0.10
2023-03-24T23:09:49.907Z,0.03
2023-03-24T23:14:54.196Z,0.25
2023-03-24T23:19:55.719Z,0.10
2023-03-24T23:25:01.936Z,0.15
2023-03-24T23:30:06.983Z,0.15
2023-03-24T23:35:09.256Z,0.20
2023-03-24T23:40:12.867Z,0.10
2023-03-24T23:45:19.194Z,0.08
2023-03-24T23:50:21.069Z,0.00
2023-03-24T23:55:22.691Z,0.00
